createdAt,value
2023-04-07T00:01:02.348Z,4.16
2023-04-07T00:06:05.055Z,4.20
2023-04-07T00:11:09.821Z,4.34
2023-04-07T00:16:12.639Z,4.45
2023-04-07T00:21:15.897Z,4.58
2023-04-07T00:26:18.366Z,4.66
2023-04-07T00:31:20.827Z,4.62
2023-04-07T00:36:24.235Z,4.59
2023-04-07T00:41:26.598Z,4.57
2023-04-07T00:46:29.039Z,4.56
2023-04-07T00:51:32.752Z,4.52
2023-04-07T00:56:35.695Z,4.39
2023-04-07T01:01:48.159Z,4.44
2023-04-07T01:06:50.530Z,4.41
2023-04-07T01:11:53.773Z,4.44
2023-04-07T01:16:56.313Z,4.47
2023-04-07T01:21:58.968Z,4.48
2023-04-07T01:27:02.156Z,4.40
2023-04-07T01:32:04.866Z,4.34
2023-04-07T01:37:07.634Z,4.21
2023-04-07T01:42:09.961Z,4.09
2023-04-07T01:47:12.439Z,4.16
2023-04-07T01:52:15.716Z,4.15
2023-04-07T01:57:18.380Z,4.15
2023-04-07T02:02:21.144Z,4.12
2023-04-07T02:07:23.456Z,4.13
2023-04-07T02:12:26.446Z,4.19
2023-04-07T02:17:38.799Z,4.20
2023-04-07T02:22:42.613Z,4.29
2023-04-07T02:27:45.319Z,4.31
2023-04-07T02:32:48.483Z,4.41
2023-04-07T02:37:51.769Z,4.48
2023-04-07T02:42:54.441Z,4.56
2023-04-07T02:47:57.234Z,4.57
2023-04-07T02:52:59.958Z,4.67
2023-04-07T02:58:03.494Z,4.71
2023-04-07T03:03:06.447Z,4.79
2023-04-07T03:08:12.266Z,4.84
2023-04-07T03:13:16.765Z,4.78
2023-04-07T03:18:19.202Z,4.84
2023-04-07T03:23:23.939Z,4.78
2023-04-07T03:28:27.148Z,4.74
2023-04-07T03:33:29.632Z,4.80
2023-04-07T03:38:31.966Z,4.78
2023-04-07T03:43:34.665Z,4.73
2023-04-07T03:48:37.004Z,4.67
2023-04-07T03:53:39.391Z,4.71
2023-04-07T03:58:42.734Z,4.63
2023-04-07T04:03:45.201Z,4.60
2023-04-07T04:08:48.722Z,4.52
2023-04-07T04:13:52.168Z,4.55
2023-04-07T04:18:55.933Z,4.54
2023-04-07T04:23:58.353Z,4.51
2023-04-07T04:29:00.761Z,4.60
2023-04-07T04:34:04.238Z,4.58
2023-04-07T04:39:06.610Z,4.66
2023-04-07T04:44:09.230Z,4.63
2023-04-07T04:49:12.634Z,4.71
2023-04-07T04:54:15.039Z,4.75
2023-04-07T04:59:17.456Z,4.63
2023-04-07T05:04:21.183Z,4.67
2023-04-07T05:09:24.289Z,4.64
2023-04-07T05:14:26.645Z,4.65
2023-04-07T05:19:29.771Z,4.64
2023-04-07T05:24:33.050Z,4.62
2023-04-07T05:29:35.496Z,4.60
2023-04-07T05:34:37.912Z,4.53
2023-04-07T05:39:40.357Z,4.52
2023-04-07T05:44:43.292Z,4.56
2023-04-07T05:49:47.226Z,4.63
2023-04-07T05:54:49.668Z,4.94
2023-04-07T05:59:52.367Z,5.26
2023-04-07T06:04:54.741Z,5.48
2023-04-07T06:09:57.116Z,5.77
2023-04-07T06:15:00.290Z,5.99
2023-04-07T06:20:02.670Z,6.17
2023-04-07T06:25:05.229Z,6.20
2023-04-07T06:30:07.531Z,6.17
2023-04-07T06:35:11.301Z,6.21
2023-04-07T06:40:13.907Z,6.15
2023-04-07T06:45:17.041Z,6.59
2023-04-07T06:50:20.934Z,7.00
2023-04-07T06:55:24.759Z,7.19
2023-04-07T07:00:30.166Z,7.00
2023-04-07T07:05:33.652Z,7.34
2023-04-07T07:10:35.995Z,7.85
2023-04-07T07:15:39.751Z,7.71
2023-04-07T07:20:42.181Z,7.90
2023-04-07T07:25:44.573Z,7.96
2023-04-07T07:30:48.575Z,8.54
2023-04-07T07:35:55.932Z,8.67
2023-04-07T07:40:59.101Z,8.97
2023-04-07T07:46:01.460Z,9.47
2023-04-07T07:51:04.673Z,9.83
2023-04-07T07:56:07.484Z,9.71
2023-04-07T08:01:09.826Z,9.87
2023-04-07T08:06:12.953Z,9.79
2023-04-07T08:11:16.997Z,9.76
2023-04-07T08:16:20.326Z,9.68
2023-04-07T08:21:23.058Z,9.46
2023-04-07T08:26:26.181Z,9.59
2023-04-07T08:31:29.440Z,9.56
2023-04-07T08:36:32.059Z,10.00
2023-04-07T08:41:35.314Z,10.67
2023-04-07T08:46:38.494Z,10.81
2023-04-07T08:51:40.849Z,10.63
2023-04-07T08:56:43.272Z,11.63
2023-04-07T09:01:46.645Z,11.97
2023-04-07T09:06:49.815Z,11.70
2023-04-07T09:11:52.723Z,10.86
2023-04-07T09:16:55.165Z,10.92
2023-04-07T09:21:57.608Z,10.29
2023-04-07T09:26:59.914Z,10.24
2023-04-07T09:32:05.686Z,10.20
2023-04-07T09:37:09.390Z,10.72
2023-04-07T09:42:12.074Z,11.28
2023-04-07T09:47:14.423Z,10.94
2023-04-07T09:52:20.025Z,11.53
2023-04-07T09:57:23.856Z,11.84
2023-04-07T10:02:26.856Z,11.27
2023-04-07T10:07:29.283Z,10.96
2023-04-07T10:12:31.952Z,11.96
2023-04-07T10:17:35.192Z,11.88
2023-04-07T10:22:37.542Z,11.87
2023-04-07T10:27:39.865Z,12.04
2023-04-07T10:32:42.210Z,12.71
2023-04-07T10:37:44.567Z,11.98
2023-04-07T10:42:47.724Z,12.22
2023-04-07T10:47:50.147Z,11.36
2023-04-07T10:52:52.661Z,11.07
2023-04-07T10:57:54.968Z,11.85
2023-04-07T11:02:57.476Z,12.01
2023-04-07T11:08:02.769Z,11.71
2023-04-07T11:13:05.181Z,11.95
2023-04-07T11:18:07.594Z,12.47
2023-04-07T11:23:09.998Z,13.16
2023-04-07T11:28:13.146Z,13.01
2023-04-07T11:33:15.592Z,13.25
2023-04-07T11:38:17.935Z,13.18
2023-04-07T11:43:20.890Z,13.41
2023-04-07T11:48:23.437Z,13.36
2023-04-07T11:53:26.192Z,14.24
2023-04-07T11:58:28.957Z,15.06
2023-04-07T12:03:31.728Z,14.77
2023-04-07T12:08:34.283Z,14.45
2023-04-07T12:13:36.893Z,14.36
2023-04-07T12:18:39.271Z,13.57
2023-04-07T12:23:42.165Z,13.40
2023-04-07T12:28:45.476Z,13.89
2023-04-07T12:33:48.057Z,13.12
2023-04-07T12:38:50.633Z,13.15
2023-04-07T12:43:53.870Z,13.32
2023-04-07T12:48:56.249Z,13.07
2023-04-07T12:54:00.869Z,13.44
2023-04-07T12:59:03.181Z,13.79
2023-04-07T13:04:05.904Z,13.24
2023-04-07T13:09:08.359Z,12.67
2023-04-07T13:14:11.131Z,12.20
2023-04-07T13:19:13.988Z,11.70
2023-04-07T13:24:17.173Z,11.62
2023-04-07T13:29:19.932Z,11.82
2023-04-07T13:34:22.395Z,11.63
2023-04-07T13:39:25.006Z,11.86
2023-04-07T13:44:28.206Z,12.10
2023-04-07T13:49:30.795Z,12.03
2023-04-07T13:54:33.918Z,12.43
2023-04-07T13:59:36.321Z,12.26
2023-04-07T14:04:38.922Z,12.01
2023-04-07T14:09:42.871Z,11.64
2023-04-07T14:14:45.692Z,11.97
2023-04-07T14:19:49.452Z,12.32
2023-04-07T14:24:51.992Z,12.10
2023-04-07T14:30:04.308Z,11.94
2023-04-07T14:35:06.742Z,11.93
2023-04-07T14:40:10.230Z,12.09
2023-04-07T14:45:12.862Z,11.77
2023-04-07T14:50:15.635Z,11.48
2023-04-07T14:55:18.318Z,11.72
2023-04-07T15:00:20.804Z,11.31
2023-04-07T15:05:23.835Z,11.37
2023-04-07T15:10:27.101Z,11.09
2023-04-07T15:15:29.521Z,10.82
2023-04-07T15:20:33.146Z,10.73
2023-04-07T15:25:36.905Z,11.17
2023-04-07T15:30:39.330Z,10.85
2023-04-07T15:35:42.136Z,10.61
2023-04-07T15:40:45.671Z,10.98
2023-04-07T15:45:48.051Z,10.73
2023-04-07T15:50:51.936Z,11.02
2023-04-07T15:55:54.934Z,10.63
2023-04-07T16:00:58.237Z,10.67
2023-04-07T16:06:01.608Z,10.47
2023-04-07T16:11:04.442Z,10.88
2023-04-07T16:16:16.993Z,10.46
2023-04-07T16:21:21.151Z,10.15
2023-04-07T16:26:23.869Z,10.40
2023-04-07T16:31:36.316Z,10.22
2023-04-07T16:36:38.866Z,9.99
2023-04-07T16:41:42.247Z,10.00
2023-04-07T16:46:45.419Z,9.81
2023-04-07T16:51:48.766Z,9.68
2023-04-07T16:56:51.972Z,9.53
2023-04-07T17:01:54.727Z,9.37
2023-04-07T17:06:57.706Z,9.31
2023-04-07T17:12:01.190Z,9.25
2023-04-07T17:17:04.007Z,9.19
2023-04-07T17:22:06.373Z,9.02
2023-04-07T17:27:09.743Z,8.94
2023-04-07T17:32:12.251Z,8.87
2023-04-07T17:37:15.791Z,8.72
2023-04-07T17:42:18.173Z,8.63
2023-04-07T17:47:20.481Z,8.62
2023-04-07T17:52:23.420Z,8.51
2023-04-07T17:57:25.871Z,8.46
2023-04-07T18:02:28.939Z,8.38
2023-04-07T18:07:33.161Z,8.35
2023-04-07T18:12:36.222Z,8.29
2023-04-07T18:17:38.514Z,8.27
2023-04-07T18:22:40.969Z,8.29
2023-04-07T18:27:43.484Z,8.33
2023-04-07T18:32:46.347Z,8.41
2023-04-07T18:37:49.653Z,8.36
2023-04-07T18:42:52.373Z,8.41
2023-04-07T18:47:54.912Z,8.37
2023-04-07T18:52:57.659Z,8.33
2023-04-07T18:58:00.126Z,8.37
2023-04-07T19:03:03.243Z,8.37
2023-04-07T19:08:06.126Z,8.37
2023-04-07T19:13:08.820Z,8.31
2023-04-07T19:18:11.315Z,8.33
2023-04-07T19:23:13.855Z,8.11
2023-04-07T19:28:16.803Z,8.19
2023-04-07T19:33:19.565Z,8.13
2023-04-07T19:38:24.555Z,8.03
2023-04-07T19:43:27.044Z,8.15
2023-04-07T19:48:30.567Z,8.08
2023-04-07T19:53:33.054Z,8.02
2023-04-07T19:58:37.978Z,7.97
2023-04-07T20:03:42.932Z,8.05
2023-04-07T20:08:46.302Z,8.03
2023-04-07T20:13:48.606Z,8.01
2023-04-07T20:18:51.172Z,7.90
2023-04-07T20:23:53.714Z,7.85
2023-04-07T20:28:56.436Z,7.77
2023-04-07T20:33:58.838Z,7.78
2023-04-07T20:39:02.564Z,7.73
2023-04-07T20:44:05.522Z,7.62
2023-04-07T20:49:08.825Z,7.57
2023-04-07T20:54:11.468Z,7.42
2023-04-07T20:59:13.880Z,7.36
2023-04-07T21:04:16.820Z,7.15
2023-04-07T21:09:19.249Z,6.86
2023-04-07T21:14:21.611Z,6.78
2023-04-07T21:19:25.047Z,6.53
2023-04-07T21:24:27.435Z,6.38
2023-04-07T21:29:30.291Z,6.18
2023-04-07T21:34:33.509Z,5.93
2023-04-07T21:39:41.600Z,5.86
2023-04-07T21:44:46.230Z,5.77
2023-04-07T21:49:48.889Z,5.63
2023-04-07T21:54:51.615Z,5.56
2023-04-07T21:59:54.039Z,5.45
2023-04-07T22:04:56.433Z,5.28
2023-04-07T22:09:59.211Z,5.20
2023-04-07T22:15:02.340Z,5.19
2023-04-07T22:20:05.039Z,5.06
2023-04-07T22:25:07.688Z,4.97
2023-04-07T22:30:10.930Z,4.92
2023-04-07T22:35:13.610Z,4.83
2023-04-07T22:40:17.196Z,4.76
2023-04-07T22:45:19.642Z,4.71
2023-04-07T22:50:23.320Z,4.61
2023-04-07T22:55:25.735Z,4.59
2023-04-07T23:00:28.505Z,4.63
2023-04-07T23:05:40.908Z,4.62
2023-04-07T23:10:44.205Z,4.56
2023-04-07T23:15:47.354Z,4.51
2023-04-07T23:20:52.878Z,4.51
2023-04-07T23:25:56.163Z,4.43
2023-04-07T23:30:58.867Z,4.42
2023-04-07T23:36:02.242Z,4.41
2023-04-07T23:41:04.902Z,4.33
2023-04-07T23:46:07.266Z,4.38
2023-04-07T23:51:09.584Z,4.38
2023-04-07T23:56:11.956Z,4.43
